sensor_id;sensor_type;location;lat;lon;timestamp;P1;durP1;ratioP1;P2;durP2;ratioP2
39098;SDS011;24844;52.380;7.018;2023-09-19T00:02:16;17.02;;;4.05;;
39098;SDS011;24844;52.380;7.018;2023-09-19T00:04:42;12.90;;;3.85;;
39098;SDS011;24844;52.380;7.018;2023-09-19T00:07:08;12.82;;;3.28;;
39098;SDS011;24844;52.380;7.018;2023-09-19T00:09:34;8.07;;;2.25;;
39098;SDS011;24844;52.380;7.018;2023-09-19T00:12:05;13.05;;;3.10;;
39098;SDS011;24844;52.380;7.018;2023-09-19T00:14:31;13.00;;;3.00;;
39098;SDS011;24844;52.380;7.018;2023-09-19T00:17:00;12.27;;;2.92;;
39098;SDS011;24844;52.380;7.018;2023-09-19T00:19:33;12.52;;;2.78;;
39098;SDS011;24844;52.380;7.018;2023-09-19T00:22:02;10.63;;;3.15;;
39098;SDS011;24844;52.380;7.018;2023-09-19T00:24:29;10.05;;;2.35;;
39098;SDS011;24844;52.380;7.018;2023-09-19T00:26:55;10.07;;;2.25;;
39098;SDS011;24844;52.380;7.018;2023-09-19T00:29:21;8.10;;;2.20;;
39098;SDS011;24844;52.380;7.018;2023-09-19T00:31:48;12.60;;;2.28;;
39098;SDS011;24844;52.380;7.018;2023-09-19T00:34:14;5.75;;;1.92;;
39098;SDS011;24844;52.380;7.018;2023-09-19T00:36:41;6.32;;;1.98;;
39098;SDS011;24844;52.380;7.018;2023-09-19T00:39:08;7.22;;;1.80;;
39098;SDS011;24844;52.380;7.018;2023-09-19T00:41:33;9.95;;;2.20;;
39098;SDS011;24844;52.380;7.018;2023-09-19T00:44:03;5.75;;;1.77;;
39098;SDS011;24844;52.380;7.018;2023-09-19T00:46:30;8.18;;;2.03;;
39098;SDS011;24844;52.380;7.018;2023-09-19T00:48:57;9.05;;;1.98;;
39098;SDS011;24844;52.380;7.018;2023-09-19T00:51:24;6.63;;;1.88;;
39098;SDS011;24844;52.380;7.018;2023-09-19T00:53:51;8.52;;;1.95;;
39098;SDS011;24844;52.380;7.018;2023-09-19T00:56:17;5.95;;;1.80;;
39098;SDS011;24844;52.380;7.018;2023-09-19T00:58:43;8.38;;;1.92;;
39098;SDS011;24844;52.380;7.018;2023-09-19T01:01:11;11.23;;;1.97;;
39098;SDS011;24844;52.380;7.018;2023-09-19T01:03:39;10.95;;;2.22;;
39098;SDS011;24844;52.380;7.018;2023-09-19T01:06:06;6.30;;;1.30;;
39098;SDS011;24844;52.380;7.018;2023-09-19T01:08:33;6.72;;;1.90;;
39098;SDS011;24844;52.380;7.018;2023-09-19T01:11:01;9.77;;;1.77;;
39098;SDS011;24844;52.380;7.018;2023-09-19T01:13:47;7.07;;;1.50;;
39098;SDS011;24844;52.380;7.018;2023-09-19T01:16:32;7.30;;;1.85;;
39098;SDS011;24844;52.380;7.018;2023-09-19T01:22:21;6.90;;;1.90;;
39098;SDS011;24844;52.380;7.018;2023-09-19T01:30:32;6.72;;;1.73;;
39098;SDS011;24844;52.380;7.018;2023-09-19T01:33:01;11.77;;;2.10;;
39098;SDS011;24844;52.380;7.018;2023-09-19T01:35:29;9.75;;;2.10;;
39098;SDS011;24844;52.380;7.018;2023-09-19T01:37:54;10.68;;;2.25;;
39098;SDS011;24844;52.380;7.018;2023-09-19T01:40:20;7.75;;;1.80;;
39098;SDS011;24844;52.380;7.018;2023-09-19T01:45:48;10.70;;;2.20;;
39098;SDS011;24844;52.380;7.018;2023-09-19T01:48:33;7.88;;;1.95;;
39098;SDS011;24844;52.380;7.018;2023-09-19T01:51:07;9.80;;;1.88;;
39098;SDS011;24844;52.380;7.018;2023-09-19T01:56:32;11.20;;;2.42;;
39098;SDS011;24844;52.380;7.018;2023-09-19T01:59:16;11.18;;;2.17;;
39098;SDS011;24844;52.380;7.018;2023-09-19T02:01:49;5.35;;;1.40;;
39098;SDS011;24844;52.380;7.018;2023-09-19T02:04:18;7.25;;;2.33;;
39098;SDS011;24844;52.380;7.018;2023-09-19T02:06:43;7.05;;;1.77;;
39098;SDS011;24844;52.380;7.018;2023-09-19T02:11:39;7.45;;;2.10;;
39098;SDS011;24844;52.380;7.018;2023-09-19T02:14:05;7.05;;;1.95;;
39098;SDS011;24844;52.380;7.018;2023-09-19T02:16:33;10.20;;;2.45;;
39098;SDS011;24844;52.380;7.018;2023-09-19T02:18:59;11.15;;;2.53;;
39098;SDS011;24844;52.380;7.018;2023-09-19T02:21:25;11.48;;;2.72;;
39098;SDS011;24844;52.380;7.018;2023-09-19T02:23:54;11.13;;;2.70;;
39098;SDS011;24844;52.380;7.018;2023-09-19T02:26:20;15.40;;;2.67;;
39098;SDS011;24844;52.380;7.018;2023-09-19T02:28:46;10.32;;;2.60;;
39098;SDS011;24844;52.380;7.018;2023-09-19T02:31:12;7.68;;;2.70;;
39098;SDS011;24844;52.380;7.018;2023-09-19T02:33:38;18.25;;;3.05;;
39098;SDS011;24844;52.380;7.018;2023-09-19T02:36:03;15.23;;;3.10;;
39098;SDS011;24844;52.380;7.018;2023-09-19T02:38:29;9.02;;;2.60;;
39098;SDS011;24844;52.380;7.018;2023-09-19T02:40:55;15.13;;;3.00;;
39098;SDS011;24844;52.380;7.018;2023-09-19T02:43:21;12.38;;;2.72;;
39098;SDS011;24844;52.380;7.018;2023-09-19T02:45:47;13.27;;;3.17;;
39098;SDS011;24844;52.380;7.018;2023-09-19T02:48:15;13.43;;;3.30;;
39098;SDS011;24844;52.380;7.018;2023-09-19T02:50:43;8.25;;;2.25;;
39098;SDS011;24844;52.380;7.018;2023-09-19T02:53:09;10.05;;;2.47;;
39098;SDS011;24844;52.380;7.018;2023-09-19T02:55:37;13.90;;;3.45;;
39098;SDS011;24844;52.380;7.018;2023-09-19T02:58:05;15.00;;;2.60;;
39098;SDS011;24844;52.380;7.018;2023-09-19T03:00:33;10.23;;;2.80;;
39098;SDS011;24844;52.380;7.018;2023-09-19T03:03:01;16.48;;;3.42;;
39098;SDS011;24844;52.380;7.018;2023-09-19T03:05:27;10.50;;;2.65;;
39098;SDS011;24844;52.380;7.018;2023-09-19T03:07:55;13.70;;;2.67;;
39098;SDS011;24844;52.380;7.018;2023-09-19T03:10:22;13.85;;;3.45;;
39098;SDS011;24844;52.380;7.018;2023-09-19T03:12:48;11.90;;;2.72;;
39098;SDS011;24844;52.380;7.018;2023-09-19T03:15:15;11.32;;;3.03;;
39098;SDS011;24844;52.380;7.018;2023-09-19T03:17:43;9.70;;;2.63;;
39098;SDS011;24844;52.380;7.018;2023-09-19T03:20:12;15.32;;;2.83;;
39098;SDS011;24844;52.380;7.018;2023-09-19T03:22:42;12.98;;;2.72;;
39098;SDS011;24844;52.380;7.018;2023-09-19T03:25:08;14.98;;;3.63;;
39098;SDS011;24844;52.380;7.018;2023-09-19T03:27:34;14.80;;;2.80;;
39098;SDS011;24844;52.380;7.018;2023-09-19T03:30:00;13.50;;;2.90;;
39098;SDS011;24844;52.380;7.018;2023-09-19T03:32:26;11.93;;;2.90;;
39098;SDS011;24844;52.380;7.018;2023-09-19T03:34:51;14.55;;;3.22;;
39098;SDS011;24844;52.380;7.018;2023-09-19T03:37:17;18.88;;;3.95;;
39098;SDS011;24844;52.380;7.018;2023-09-19T03:39:43;16.67;;;3.63;;
39098;SDS011;24844;52.380;7.018;2023-09-19T03:42:08;16.52;;;3.42;;
39098;SDS011;24844;52.380;7.018;2023-09-19T03:44:34;13.82;;;3.50;;
39098;SDS011;24844;52.380;7.018;2023-09-19T03:47:00;13.98;;;3.15;;
39098;SDS011;24844;52.380;7.018;2023-09-19T03:49:25;16.20;;;3.22;;
39098;SDS011;24844;52.380;7.018;2023-09-19T03:51:51;10.65;;;2.65;;
39098;SDS011;24844;52.380;7.018;2023-09-19T03:54:17;8.85;;;2.28;;
39098;SDS011;24844;52.380;7.018;2023-09-19T03:56:44;17.33;;;3.50;;
39098;SDS011;24844;52.380;7.018;2023-09-19T03:59:10;12.38;;;3.00;;
39098;SDS011;24844;52.380;7.018;2023-09-19T04:01:37;17.38;;;2.80;;
39098;SDS011;24844;52.380;7.018;2023-09-19T04:04:02;13.60;;;3.25;;
39098;SDS011;24844;52.380;7.018;2023-09-19T04:06:36;18.48;;;3.10;;
39098;SDS011;24844;52.380;7.018;2023-09-19T04:09:02;11.43;;;2.45;;
39098;SDS011;24844;52.380;7.018;2023-09-19T04:11:28;10.27;;;2.60;;
39098;SDS011;24844;52.380;7.018;2023-09-19T04:13:58;14.70;;;3.10;;
39098;SDS011;24844;52.380;7.018;2023-09-19T04:16:23;15.65;;;3.00;;
39098;SDS011;24844;52.380;7.018;2023-09-19T04:18:49;15.90;;;3.38;;
39098;SDS011;24844;52.380;7.018;2023-09-19T04:21:14;15.35;;;3.45;;
39098;SDS011;24844;52.380;7.018;2023-09-19T04:23:40;13.80;;;3.45;;
39098;SDS011;24844;52.380;7.018;2023-09-19T04:26:06;15.15;;;3.22;;
39098;SDS011;24844;52.380;7.018;2023-09-19T04:28:32;14.60;;;3.05;;
39098;SDS011;24844;52.380;7.018;2023-09-19T04:30:59;11.52;;;2.33;;
39098;SDS011;24844;52.380;7.018;2023-09-19T04:33:28;15.75;;;2.67;;
39098;SDS011;24844;52.380;7.018;2023-09-19T04:35:53;17.88;;;3.47;;
39098;SDS011;24844;52.380;7.018;2023-09-19T04:38:19;14.30;;;3.03;;
39098;SDS011;24844;52.380;7.018;2023-09-19T04:40:45;16.33;;;2.78;;
39098;SDS011;24844;52.380;7.018;2023-09-19T04:43:11;18.85;;;3.42;;
39098;SDS011;24844;52.380;7.018;2023-09-19T04:45:38;14.70;;;2.67;;
39098;SDS011;24844;52.380;7.018;2023-09-19T04:48:04;13.90;;;2.53;;
39098;SDS011;24844;52.380;7.018;2023-09-19T04:50:31;11.30;;;2.80;;
39098;SDS011;24844;52.380;7.018;2023-09-19T04:52:59;17.15;;;2.60;;
39098;SDS011;24844;52.380;7.018;2023-09-19T04:55:25;11.07;;;2.75;;
39098;SDS011;24844;52.380;7.018;2023-09-19T04:57:51;12.18;;;2.38;;
39098;SDS011;24844;52.380;7.018;2023-09-19T05:00:18;8.82;;;2.40;;
39098;SDS011;24844;52.380;7.018;2023-09-19T05:02:49;12.85;;;2.65;;
39098;SDS011;24844;52.380;7.018;2023-09-19T05:05:16;15.98;;;2.90;;
39098;SDS011;24844;52.380;7.018;2023-09-19T05:07:42;17.10;;;3.38;;
39098;SDS011;24844;52.380;7.018;2023-09-19T05:10:11;15.48;;;2.90;;
39098;SDS011;24844;52.380;7.018;2023-09-19T05:12:37;15.68;;;3.08;;
39098;SDS011;24844;52.380;7.018;2023-09-19T05:15:03;10.90;;;2.88;;
39098;SDS011;24844;52.380;7.018;2023-09-19T05:17:31;14.60;;;3.05;;
39098;SDS011;24844;52.380;7.018;2023-09-19T05:19:57;14.50;;;3.17;;
39098;SDS011;24844;52.380;7.018;2023-09-19T05:22:23;14.10;;;2.92;;
39098;SDS011;24844;52.380;7.018;2023-09-19T05:24:52;12.02;;;2.78;;
39098;SDS011;24844;52.380;7.018;2023-09-19T05:27:18;11.55;;;2.78;;
39098;SDS011;24844;52.380;7.018;2023-09-19T05:29:45;11.05;;;2.55;;
39098;SDS011;24844;52.380;7.018;2023-09-19T05:32:11;16.88;;;3.25;;
39098;SDS011;24844;52.380;7.018;2023-09-19T05:34:37;17.45;;;2.65;;
39098;SDS011;24844;52.380;7.018;2023-09-19T05:37:03;13.57;;;2.22;;
39098;SDS011;24844;52.380;7.018;2023-09-19T05:39:33;18.83;;;3.33;;
39098;SDS011;24844;52.380;7.018;2023-09-19T05:41:59;16.80;;;2.72;;
39098;SDS011;24844;52.380;7.018;2023-09-19T05:44:25;14.95;;;2.35;;
39098;SDS011;24844;52.380;7.018;2023-09-19T05:46:51;9.30;;;2.13;;
39098;SDS011;24844;52.380;7.018;2023-09-19T05:49:17;15.00;;;2.97;;
39098;SDS011;24844;52.380;7.018;2023-09-19T05:51:43;12.88;;;2.70;;
39098;SDS011;24844;52.380;7.018;2023-09-19T05:54:08;14.30;;;3.40;;
39098;SDS011;24844;52.380;7.018;2023-09-19T05:56:36;12.93;;;2.53;;
39098;SDS011;24844;52.380;7.018;2023-09-19T05:59:01;12.82;;;2.58;;
39098;SDS011;24844;52.380;7.018;2023-09-19T06:01:28;13.55;;;2.80;;
39098;SDS011;24844;52.380;7.018;2023-09-19T06:03:56;17.98;;;2.83;;
39098;SDS011;24844;52.380;7.018;2023-09-19T06:06:21;8.88;;;2.33;;
39098;SDS011;24844;52.380;7.018;2023-09-19T06:08:49;15.45;;;2.85;;
39098;SDS011;24844;52.380;7.018;2023-09-19T06:11:15;14.00;;;2.47;;
39098;SDS011;24844;52.380;7.018;2023-09-19T06:13:41;16.05;;;2.65;;
39098;SDS011;24844;52.380;7.018;2023-09-19T06:16:06;12.05;;;2.60;;
39098;SDS011;24844;52.380;7.018;2023-09-19T06:18:32;14.95;;;2.70;;
39098;SDS011;24844;52.380;7.018;2023-09-19T06:20:59;9.75;;;2.42;;
39098;SDS011;24844;52.380;7.018;2023-09-19T06:23:25;10.80;;;2.10;;
39098;SDS011;24844;52.380;7.018;2023-09-19T06:25:54;12.05;;;2.20;;
39098;SDS011;24844;52.380;7.018;2023-09-19T06:28:19;9.40;;;2.08;;
39098;SDS011;24844;52.380;7.018;2023-09-19T06:30:49;9.82;;;2.45;;
39098;SDS011;24844;52.380;7.018;2023-09-19T06:33:15;12.13;;;2.45;;
39098;SDS011;24844;52.380;7.018;2023-09-19T06:35:42;14.93;;;2.85;;
39098;SDS011;24844;52.380;7.018;2023-09-19T06:38:09;8.80;;;2.00;;
39098;SDS011;24844;52.380;7.018;2023-09-19T06:40:38;13.15;;;3.03;;
39098;SDS011;24844;52.380;7.018;2023-09-19T06:43:03;9.95;;;2.70;;
39098;SDS011;24844;52.380;7.018;2023-09-19T06:45:30;13.57;;;2.58;;
39098;SDS011;24844;52.380;7.018;2023-09-19T06:47:56;11.68;;;2.72;;
39098;SDS011;24844;52.380;7.018;2023-09-19T06:50:23;10.02;;;2.53;;
39098;SDS011;24844;52.380;7.018;2023-09-19T06:52:49;14.57;;;2.90;;
39098;SDS011;24844;52.380;7.018;2023-09-19T06:55:17;14.05;;;2.60;;
39098;SDS011;24844;52.380;7.018;2023-09-19T06:57:44;7.95;;;2.17;;
39098;SDS011;24844;52.380;7.018;2023-09-19T07:00:11;10.75;;;2.60;;
39098;SDS011;24844;52.380;7.018;2023-09-19T07:02:43;18.58;;;3.28;;
39098;SDS011;24844;52.380;7.018;2023-09-19T07:05:09;8.68;;;1.90;;
39098;SDS011;24844;52.380;7.018;2023-09-19T07:07:35;11.98;;;2.58;;
39098;SDS011;24844;52.380;7.018;2023-09-19T07:10:04;8.10;;;1.88;;
39098;SDS011;24844;52.380;7.018;2023-09-19T07:12:30;14.77;;;2.80;;
39098;SDS011;24844;52.380;7.018;2023-09-19T07:14:57;14.05;;;2.47;;
39098;SDS011;24844;52.380;7.018;2023-09-19T07:17:23;16.20;;;2.88;;
39098;SDS011;24844;52.380;7.018;2023-09-19T07:19:49;9.63;;;2.15;;
39098;SDS011;24844;52.380;7.018;2023-09-19T07:22:15;16.75;;;3.03;;
39098;SDS011;24844;52.380;7.018;2023-09-19T07:24:41;13.23;;;2.20;;
39098;SDS011;24844;52.380;7.018;2023-09-19T07:27:06;14.13;;;2.88;;
39098;SDS011;24844;52.380;7.018;2023-09-19T07:29:32;10.25;;;2.00;;
39098;SDS011;24844;52.380;7.018;2023-09-19T07:31:57;12.43;;;2.72;;
39098;SDS011;24844;52.380;7.018;2023-09-19T07:34:23;14.10;;;2.85;;
39098;SDS011;24844;52.380;7.018;2023-09-19T07:36:49;8.50;;;2.13;;
39098;SDS011;24844;52.380;7.018;2023-09-19T07:39:15;13.75;;;2.38;;
39098;SDS011;24844;52.380;7.018;2023-09-19T07:41:40;8.57;;;2.30;;
39098;SDS011;24844;52.380;7.018;2023-09-19T07:44:07;10.10;;;2.15;;
39098;SDS011;24844;52.380;7.018;2023-09-19T07:46:33;10.75;;;2.13;;
39098;SDS011;24844;52.380;7.018;2023-09-19T07:48:59;13.00;;;2.53;;
39098;SDS011;24844;52.380;7.018;2023-09-19T07:51:25;9.77;;;2.25;;
39098;SDS011;24844;52.380;7.018;2023-09-19T07:53:52;8.55;;;2.60;;
39098;SDS011;24844;52.380;7.018;2023-09-19T07:56:17;15.30;;;2.67;;
39098;SDS011;24844;52.380;7.018;2023-09-19T07:58:45;13.60;;;2.63;;
39098;SDS011;24844;52.380;7.018;2023-09-19T08:01:10;11.18;;;2.95;;
39098;SDS011;24844;52.380;7.018;2023-09-19T08:03:38;8.35;;;2.45;;
39098;SDS011;24844;52.380;7.018;2023-09-19T08:06:06;9.43;;;2.10;;
39098;SDS011;24844;52.380;7.018;2023-09-19T08:08:32;5.70;;;2.10;;
39098;SDS011;24844;52.380;7.018;2023-09-19T08:11:05;11.30;;;2.42;;
39098;SDS011;24844;52.380;7.018;2023-09-19T08:13:40;12.35;;;2.40;;
39098;SDS011;24844;52.380;7.018;2023-09-19T08:16:12;8.30;;;2.33;;
39098;SDS011;24844;52.380;7.018;2023-09-19T08:18:38;17.15;;;2.92;;
39098;SDS011;24844;52.380;7.018;2023-09-19T08:21:06;10.95;;;2.17;;
39098;SDS011;24844;52.380;7.018;2023-09-19T08:23:35;11.02;;;2.67;;
39098;SDS011;24844;52.380;7.018;2023-09-19T08:26:04;10.35;;;2.22;;
39098;SDS011;24844;52.380;7.018;2023-09-19T08:28:36;13.57;;;2.30;;
39098;SDS011;24844;52.380;7.018;2023-09-19T08:31:05;12.75;;;3.03;;
39098;SDS011;24844;52.380;7.018;2023-09-19T08:33:32;10.05;;;2.80;;
39098;SDS011;24844;52.380;7.018;2023-09-19T08:35:59;14.07;;;3.10;;
39098;SDS011;24844;52.380;7.018;2023-09-19T08:38:25;10.63;;;2.55;;
39098;SDS011;24844;52.380;7.018;2023-09-19T08:40:56;12.30;;;2.67;;
39098;SDS011;24844;52.380;7.018;2023-09-19T08:43:24;11.98;;;2.60;;
39098;SDS011;24844;52.380;7.018;2023-09-19T08:45:51;15.88;;;2.78;;
39098;SDS011;24844;52.380;7.018;2023-09-19T08:48:30;9.38;;;2.40;;
39098;SDS011;24844;52.380;7.018;2023-09-19T08:51:00;10.80;;;2.70;;
39098;SDS011;24844;52.380;7.018;2023-09-19T08:53:35;15.75;;;3.13;;
39098;SDS011;24844;52.380;7.018;2023-09-19T08:56:03;12.07;;;2.72;;
39098;SDS011;24844;52.380;7.018;2023-09-19T08:58:34;12.20;;;2.83;;
39098;SDS011;24844;52.380;7.018;2023-09-19T09:01:05;10.65;;;2.83;;
39098;SDS011;24844;52.380;7.018;2023-09-19T09:03:32;10.25;;;2.88;;
39098;SDS011;24844;52.380;7.018;2023-09-19T09:05:59;9.75;;;2.70;;
39098;SDS011;24844;52.380;7.018;2023-09-19T09:08:26;7.00;;;2.28;;
39098;SDS011;24844;52.380;7.018;2023-09-19T09:10:53;10.43;;;2.70;;
39098;SDS011;24844;52.380;7.018;2023-09-19T09:13:19;7.95;;;2.78;;
39098;SDS011;24844;52.380;7.018;2023-09-19T09:15:46;9.27;;;2.55;;
39098;SDS011;24844;52.380;7.018;2023-09-19T09:18:12;10.30;;;2.83;;
39098;SDS011;24844;52.380;7.018;2023-09-19T09:20:38;9.57;;;2.70;;
39098;SDS011;24844;52.380;7.018;2023-09-19T09:23:03;11.25;;;3.20;;
39098;SDS011;24844;52.380;7.018;2023-09-19T09:28:19;9.20;;;2.63;;
39098;SDS011;24844;52.380;7.018;2023-09-19T09:30:49;8.30;;;2.50;;
39098;SDS011;24844;52.380;7.018;2023-09-19T09:33:15;12.07;;;2.58;;
39098;SDS011;24844;52.380;7.018;2023-09-19T09:38:22;10.55;;;2.70;;
39098;SDS011;24844;52.380;7.018;2023-09-19T09:40:53;8.45;;;2.35;;
39098;SDS011;24844;52.380;7.018;2023-09-19T09:43:40;10.95;;;2.95;;
39098;SDS011;24844;52.380;7.018;2023-09-19T09:49:03;11.20;;;2.90;;
39098;SDS011;24844;52.380;7.018;2023-09-19T09:51:51;9.60;;;2.72;;
39098;SDS011;24844;52.380;7.018;2023-09-19T09:54:24;11.07;;;2.58;;
39098;SDS011;24844;52.380;7.018;2023-09-19T09:57:01;8.80;;;2.60;;
39098;SDS011;24844;52.380;7.018;2023-09-19T10:02:36;10.00;;;2.70;;
39098;SDS011;24844;52.380;7.018;2023-09-19T10:08:11;14.05;;;3.40;;
39098;SDS011;24844;52.380;7.018;2023-09-19T10:10:38;6.95;;;2.63;;
39098;SDS011;24844;52.380;7.018;2023-09-19T10:13:08;14.73;;;3.40;;
39098;SDS011;24844;52.380;7.018;2023-09-19T10:15:38;11.20;;;3.28;;
39098;SDS011;24844;52.380;7.018;2023-09-19T10:18:11;11.30;;;2.92;;
39098;SDS011;24844;52.380;7.018;2023-09-19T10:20:42;14.30;;;3.63;;
39098;SDS011;24844;52.380;7.018;2023-09-19T10:23:10;9.75;;;2.88;;
39098;SDS011;24844;52.380;7.018;2023-09-19T10:25:43;12.57;;;2.90;;
39098;SDS011;24844;52.380;7.018;2023-09-19T10:28:13;10.20;;;2.50;;
39098;SDS011;24844;52.380;7.018;2023-09-19T10:30:43;10.07;;;2.65;;
39098;SDS011;24844;52.380;7.018;2023-09-19T10:33:12;11.68;;;2.85;;
39098;SDS011;24844;52.380;7.018;2023-09-19T10:35:39;11.93;;;3.00;;
39098;SDS011;24844;52.380;7.018;2023-09-19T10:38:10;10.85;;;3.10;;
39098;SDS011;24844;52.380;7.018;2023-09-19T10:40:36;11.55;;;3.17;;
39098;SDS011;24844;52.380;7.018;2023-09-19T10:43:08;10.82;;;2.63;;
39098;SDS011;24844;52.380;7.018;2023-09-19T10:45:43;9.90;;;3.03;;
39098;SDS011;24844;52.380;7.018;2023-09-19T10:48:10;8.38;;;2.60;;
39098;SDS011;24844;52.380;7.018;2023-09-19T10:50:41;7.55;;;2.35;;
39098;SDS011;24844;52.380;7.018;2023-09-19T10:53:10;13.23;;;3.22;;
39098;SDS011;24844;52.380;7.018;2023-09-19T10:55:37;12.77;;;3.00;;
39098;SDS011;24844;52.380;7.018;2023-09-19T10:58:04;13.98;;;2.90;;
39098;SDS011;24844;52.380;7.018;2023-09-19T11:00:53;9.13;;;2.97;;
39098;SDS011;24844;52.380;7.018;2023-09-19T11:03:21;9.70;;;3.05;;
39098;SDS011;24844;52.380;7.018;2023-09-19T11:11:44;11.45;;;2.75;;
39098;SDS011;24844;52.380;7.018;2023-09-19T11:30:31;9.20;;;2.35;;
39098;SDS011;24844;52.380;7.018;2023-09-19T11:36:04;9.82;;;2.38;;
39098;SDS011;24844;52.380;7.018;2023-09-19T11:43:53;11.05;;;2.90;;
39098;SDS011;24844;52.380;7.018;2023-09-19T11:46:20;10.30;;;2.70;;
39098;SDS011;24844;52.380;7.018;2023-09-19T11:48:50;12.70;;;2.78;;
39098;SDS011;24844;52.380;7.018;2023-09-19T11:51:17;9.57;;;2.60;;
39098;SDS011;24844;52.380;7.018;2023-09-19T11:53:45;9.35;;;2.53;;
39098;SDS011;24844;52.380;7.018;2023-09-19T11:56:18;11.52;;;2.75;;
39098;SDS011;24844;52.380;7.018;2023-09-19T11:58:46;10.73;;;2.38;;
39098;SDS011;24844;52.380;7.018;2023-09-19T12:01:15;9.82;;;2.50;;
39098;SDS011;24844;52.380;7.018;2023-09-19T12:03:47;10.93;;;2.58;;
39098;SDS011;24844;52.380;7.018;2023-09-19T12:06:17;7.80;;;2.22;;
39098;SDS011;24844;52.380;7.018;2023-09-19T12:08:43;6.00;;;2.40;;
39098;SDS011;24844;52.380;7.018;2023-09-19T12:11:12;9.70;;;2.30;;
39098;SDS011;24844;52.380;7.018;2023-09-19T12:13:43;8.02;;;2.70;;
39098;SDS011;24844;52.380;7.018;2023-09-19T12:16:13;10.00;;;2.40;;
39098;SDS011;24844;52.380;7.018;2023-09-19T12:18:40;10.77;;;2.70;;
39098;SDS011;24844;52.380;7.018;2023-09-19T12:21:20;10.25;;;2.47;;
39098;SDS011;24844;52.380;7.018;2023-09-19T12:24:11;8.10;;;2.05;;
39098;SDS011;24844;52.380;7.018;2023-09-19T12:26:42;7.50;;;1.92;;
39098;SDS011;24844;52.380;7.018;2023-09-19T12:29:12;9.00;;;2.40;;
39098;SDS011;24844;52.380;7.018;2023-09-19T12:34:29;9.43;;;2.05;;
39098;SDS011;24844;52.380;7.018;2023-09-19T12:39:40;6.78;;;2.35;;
39098;SDS011;24844;52.380;7.018;2023-09-19T12:42:08;7.37;;;2.00;;
39098;SDS011;24844;52.380;7.018;2023-09-19T12:44:41;10.40;;;2.00;;
39098;SDS011;24844;52.380;7.018;2023-09-19T12:47:12;5.88;;;2.00;;
39098;SDS011;24844;52.380;7.018;2023-09-19T12:52:48;13.63;;;2.30;;
39098;SDS011;24844;52.380;7.018;2023-09-19T12:55:30;7.45;;;2.42;;
39098;SDS011;24844;52.380;7.018;2023-09-19T13:00:43;6.22;;;1.88;;
39098;SDS011;24844;52.380;7.018;2023-09-19T13:05:53;8.60;;;2.15;;
39098;SDS011;24844;52.380;7.018;2023-09-19T13:08:24;8.95;;;1.92;;
39098;SDS011;24844;52.380;7.018;2023-09-19T13:11:04;5.40;;;1.95;;
39098;SDS011;24844;52.380;7.018;2023-09-19T13:14:23;9.63;;;2.38;;
39098;SDS011;24844;52.380;7.018;2023-09-19T13:19:47;6.07;;;1.90;;
39098;SDS011;24844;52.380;7.018;2023-09-19T13:25:16;9.82;;;2.60;;
39098;SDS011;24844;52.380;7.018;2023-09-19T13:27:43;8.88;;;1.92;;
39098;SDS011;24844;52.380;7.018;2023-09-19T13:30:11;8.38;;;1.92;;
39098;SDS011;24844;52.380;7.018;2023-09-19T13:32:37;5.32;;;2.10;;
39098;SDS011;24844;52.380;7.018;2023-09-19T13:35:05;7.93;;;2.00;;
39098;SDS011;24844;52.380;7.018;2023-09-19T13:37:33;5.55;;;1.90;;
39098;SDS011;24844;52.380;7.018;2023-09-19T13:40:06;7.10;;;1.90;;
39098;SDS011;24844;52.380;7.018;2023-09-19T13:42:32;11.90;;;2.60;;
39098;SDS011;24844;52.380;7.018;2023-09-19T13:44:58;9.30;;;2.00;;
39098;SDS011;24844;52.380;7.018;2023-09-19T13:47:24;7.85;;;2.20;;
39098;SDS011;24844;52.380;7.018;2023-09-19T13:49:51;10.83;;;1.90;;
39098;SDS011;24844;52.380;7.018;2023-09-19T13:52:21;9.77;;;1.92;;
39098;SDS011;24844;52.380;7.018;2023-09-19T13:54:48;8.45;;;1.80;;
39098;SDS011;24844;52.380;7.018;2023-09-19T13:57:15;7.65;;;1.85;;
39098;SDS011;24844;52.380;7.018;2023-09-19T13:59:41;7.63;;;1.95;;
39098;SDS011;24844;52.380;7.018;2023-09-19T14:02:07;4.63;;;1.50;;
39098;SDS011;24844;52.380;7.018;2023-09-19T14:04:33;6.00;;;1.95;;
39098;SDS011;24844;52.380;7.018;2023-09-19T14:07:01;7.93;;;1.92;;
39098;SDS011;24844;52.380;7.018;2023-09-19T14:09:28;8.52;;;1.95;;
39098;SDS011;24844;52.380;7.018;2023-09-19T14:11:54;9.10;;;1.88;;
39098;SDS011;24844;52.380;7.018;2023-09-19T14:14:20;9.93;;;2.05;;
39098;SDS011;24844;52.380;7.018;2023-09-19T14:16:46;8.05;;;1.75;;
39098;SDS011;24844;52.380;7.018;2023-09-19T14:19:14;6.65;;;1.77;;
39098;SDS011;24844;52.380;7.018;2023-09-19T14:21:41;7.10;;;1.63;;
39098;SDS011;24844;52.380;7.018;2023-09-19T14:24:07;5.53;;;1.52;;
39098;SDS011;24844;52.380;7.018;2023-09-19T14:26:37;4.85;;;1.35;;
39098;SDS011;24844;52.380;7.018;2023-09-19T14:29:03;7.57;;;2.05;;
39098;SDS011;24844;52.380;7.018;2023-09-19T14:31:29;12.18;;;2.00;;
39098;SDS011;24844;52.380;7.018;2023-09-19T14:33:55;8.45;;;1.60;;
39098;SDS011;24844;52.380;7.018;2023-09-19T14:36:21;3.85;;;1.27;;
39098;SDS011;24844;52.380;7.018;2023-09-19T14:38:47;4.28;;;1.52;;
39098;SDS011;24844;52.380;7.018;2023-09-19T14:41:13;4.88;;;1.40;;
39098;SDS011;24844;52.380;7.018;2023-09-19T14:43:38;6.43;;;1.60;;
39098;SDS011;24844;52.380;7.018;2023-09-19T14:46:04;4.30;;;1.50;;
39098;SDS011;24844;52.380;7.018;2023-09-19T14:48:32;5.45;;;1.35;;
39098;SDS011;24844;52.380;7.018;2023-09-19T14:51:02;7.93;;;1.80;;
39098;SDS011;24844;52.380;7.018;2023-09-19T14:53:29;5.22;;;1.35;;
39098;SDS011;24844;52.380;7.018;2023-09-19T14:55:55;6.10;;;1.75;;
39098;SDS011;24844;52.380;7.018;2023-09-19T14:58:21;5.50;;;1.40;;
39098;SDS011;24844;52.380;7.018;2023-09-19T15:00:46;7.88;;;1.58;;
39098;SDS011;24844;52.380;7.018;2023-09-19T15:03:12;8.35;;;1.70;;
39098;SDS011;24844;52.380;7.018;2023-09-19T15:08:06;7.30;;;2.10;;
39098;SDS011;24844;52.380;7.018;2023-09-19T15:10:32;6.13;;;1.58;;
39098;SDS011;24844;52.380;7.018;2023-09-19T15:12:57;6.85;;;1.90;;
39098;SDS011;24844;52.380;7.018;2023-09-19T15:15:23;5.28;;;1.50;;
39098;SDS011;24844;52.380;7.018;2023-09-19T15:17:48;5.78;;;1.50;;
39098;SDS011;24844;52.380;7.018;2023-09-19T15:20:14;4.75;;;1.40;;
39098;SDS011;24844;52.380;7.018;2023-09-19T15:22:40;4.20;;;1.10;;
39098;SDS011;24844;52.380;7.018;2023-09-19T15:25:06;5.30;;;1.30;;
39098;SDS011;24844;52.380;7.018;2023-09-19T15:27:32;4.10;;;1.20;;
39098;SDS011;24844;52.380;7.018;2023-09-19T15:30:01;6.45;;;1.38;;
39098;SDS011;24844;52.380;7.018;2023-09-19T15:32:27;3.33;;;1.13;;
39098;SDS011;24844;52.380;7.018;2023-09-19T15:34:53;4.97;;;1.17;;
39098;SDS011;24844;52.380;7.018;2023-09-19T15:37:19;7.60;;;1.13;;
39098;SDS011;24844;52.380;7.018;2023-09-19T15:39:45;4.80;;;1.00;;
39098;SDS011;24844;52.380;7.018;2023-09-19T15:42:11;3.25;;;1.00;;
39098;SDS011;24844;52.380;7.018;2023-09-19T15:44:36;4.97;;;0.90;;
39098;SDS011;24844;52.380;7.018;2023-09-19T15:47:05;3.90;;;1.30;;
39098;SDS011;24844;52.380;7.018;2023-09-19T15:51:56;4.00;;;1.20;;
39098;SDS011;24844;52.380;7.018;2023-09-19T15:54:22;2.05;;;0.80;;
39098;SDS011;24844;52.380;7.018;2023-09-19T15:56:51;4.22;;;0.93;;
39098;SDS011;24844;52.380;7.018;2023-09-19T15:59:16;3.10;;;1.30;;
39098;SDS011;24844;52.380;7.018;2023-09-19T16:01:42;3.53;;;1.10;;
39098;SDS011;24844;52.380;7.018;2023-09-19T16:04:08;5.65;;;1.20;;
39098;SDS011;24844;52.380;7.018;2023-09-19T16:06:35;4.35;;;1.23;;
39098;SDS011;24844;52.380;7.018;2023-09-19T16:09:03;4.18;;;1.60;;
39098;SDS011;24844;52.380;7.018;2023-09-19T16:11:31;3.20;;;1.10;;
39098;SDS011;24844;52.380;7.018;2023-09-19T16:13:58;3.45;;;1.10;;